Alma, IL (62807)

12:59 PM CST on February 08, 2016 (GMT -0600)
Alma Park | | Change Station
CLOSE
Current Station
Personal Weather Station
Location: Alma, IL
Elevation: 640 ft
Nearby Weather Stations

Elev 640 ft 38.72 °N, 88.91 °W | Updated 7 minutes ago

Overcast
Overcast
27.1 °F
Feels Like 15 °F
N
17.0
Wind Variable Wind from NW

Today
High -- | Low -- °F
--% Chance of Precip.
Yesterday
High -- | Low -- °F
Precip. -- in
Pressure 29.82 in
Visibility 10.0 miles
Clouds Scattered Clouds 2500 ft
Scattered Clouds 3100 ft
Overcast 3800 ft
Windchill 15 °F
Dew Point 20 °F
Humidity 75%
Rainfall 0.00 in
Snow Depth Not available.
6:55 AM 5:24 PM
New Moon, 0% visible
METAR KSLO 081835Z AUTO 30019G25KT 10SM SCT025 SCT031 OVC038 M01/M07 A2982 RMK AO2 T10151070
Pressure 29.82 in
Visibility 10.0 miles
Clouds Scattered Clouds 2500 ft
Scattered Clouds 3100 ft
Overcast 3800 ft
Windchill 15 °F
Dew Point 20 °F
Humidity 75%
Rainfall 0.00 in
Snow Depth Not available.
6:55 AM 5:24 PM
New Moon, 0% visible
METAR KSLO 081835Z AUTO 30019G25KT 10SM SCT025 SCT031 OVC038 M01/M07 A2982 RMK AO2 T10151070

10-Day Weather Forecast

Almanac

Astronomy

Feb. 08, 2016 Rise Set
Actual Time
Civil Twilight
Nautical Twilight
Astronomical Twilight
Moon
Length of Visible Light
Length of Day
Tomorrow will be .
, % of the Moon is Illuminated

Today's Extremes

State Highs State Lows

Community

WunderPhotos

Upload Photos

1,891,481 photos uploaded!

WunderBlog® & News

Nearby

Air Quality

  Air Quality AQ Index Pollutant
Not available.

Snow Depth

Station Depth Elevation

Earthquake Activity

City Distance Mag. Time & Date
Minimum magnitude displayed is 2.5.

Coastal Water Temperatures

Place Temperature

Stations

Nearby Weather Stations

Station Location Temp. Windchill Dew Point Humidity Wind Precip. Elev Updated Type
                   

Watches & Warnings

There are currently no watches in effect.